Bangkok, Thaïlande

22:59 ICT le 20 février 2017 (GMT +0700)
Soi Ekkarat 15/2 | | Change Station

Alt. 19 ft 13.96 °N, 100.60 °E | Updated 8 minutes ago

Clear
Ciel dégagé
82.9 ° F
Paraît 91 ° F
N
1.2
Vent Variable Vent de SSO
Gusts 3.1 mph

Aujourd'hui
Haut(e) -- | Bas -- ° F
--% Risque de précip.
Hier
Haut(e) -- | Bas -- ° F
Precip. -- pouce
Pression 29.83 pouce
Visibilité 5.6 Miles terrestres
Nuages
indice de chaleur 91 ° F
Point de rosée 76 ° F
Humidité 79%
Précipitations 0.00 pouce
Profondeur de la couche neigeuse Non disponible.
6:38 AM 6:24 PM
Lune descendante, 33% visible
METAR VTBD 201530Z 18007KT 150V210 9000 NSC 28/23 Q1010 NOSIG
Pression 29.83 pouce
Visibilité 5.6 Miles terrestres
Nuages
indice de chaleur 91 ° F
Point de rosée 76 ° F
Humidité 79%
Précipitations 0.00 pouce
Profondeur de la couche neigeuse Non disponible.
6:38 AM 6:24 PM
Lune descendante, 33% visible
METAR VTBD 201530Z 18007KT 150V210 9000 NSC 28/23 Q1010 NOSIG

Get Your Daily Forecast Email!

Thanks for signing up!

Be on the lookout for a verification email in your inbox.

You'll start receiving the daily forecast at 8 AM.

×

10-Day Weather Forecast

No radar image for this location.
×

Almanac

Astronomie

Feb. 20, 2017 Lever Coucher
Temps réel
Crépuscule civil
Crépuscule nautique
Crépuscule astronomique
Lune
Durée de lumière visible
Longueur du jour
Tomorrow will be .
, % of the Moon is Illuminated

Extrêmes aujourd'hui

Country Highs Country Lows

Community

WunderPhotos

Upload Photos

1,962,540 Photos téléchargées !

WunderBlog® & News

Nearby

Qualité de l'air

  Qualité de l'air Indice de la qualité de l'air Polluant
Not available.

Épaisseur de neige

Station Depth Altitude

Activité sismique

Ville Distance Mag. Time & Date
Minimum magnitude displayed is 2.5.

Températures des eaux côtières

Lieu Température

Stations

Stations météo à proximité

Emplacement de la station Température Refroidissement éolien Point de rosée Humidité Vent Precip. Alt. Mise à jour Type